Time;durP1;ratioP1;P1;durP2;ratioP2;P2;SDS_P1;SDS_P2;PMS_P1;PMS_P2;Temp;Humidity;BMP_temperature;BMP_pressure;BME280_temperature;BME280_humidity;BME280_pressure;Samples;Min_cycle;Max_cycle;Signal;HPM_P1;HPM_P2
2023/10/28 00:01:51;;;;;;;1.43;1.17;;;;;;;;;;5053222;28;20421;-61
2023/10/28 00:04:23;;;;;;;1.43;1.30;;;;;;;;;;5053220;28;20984;-61
2023/10/28 00:06:49;;;;;;;4.33;1.60;;;;;;;;;;5053444;28;20452;-62
2023/10/28 00:09:15;;;;;;;4.30;1.00;;;;;;;;;;5053508;28;20506;-62
2023/10/28 00:11:45;;;;;;;2.20;1.20;;;;;;;;;;5053223;28;20508;-61
2023/10/28 00:14:11;;;;;;;2.60;1.30;;;;;;;;;;5053223;28;20448;-62
2023/10/28 00:16:37;;;;;;;5.43;1.40;;;;;;;;;;5053215;28;20419;-61
2023/10/28 00:19:03;;;;;;;1.53;1.27;;;;;;;;;;5051626;28;20453;-61
2023/10/28 00:21:32;;;;;;;8.43;1.33;;;;;;;;;;5053259;28;20435;-61
2023/10/28 00:23:58;;;;;;;3.90;1.30;;;;;;;;;;5052713;28;20415;-61
2023/10/28 00:26:24;;;;;;;8.77;1.43;;;;;;;;;;5053098;28;20411;-62
2023/10/28 00:28:50;;;;;;;6.67;1.60;;;;;;;;;;5052761;28;20419;-62
2023/10/28 00:31:21;;;;;;;1.53;1.17;;;;;;;;;;5052757;28;20840;-62
2023/10/28 00:33:51;;;;;;;3.53;1.23;;;;;;;;;;5052827;28;20419;-62
2023/10/28 00:36:17;;;;;;;7.10;1.50;;;;;;;;;;5051565;28;20418;-62
2023/10/28 00:38:43;;;;;;;12.03;1.73;;;;;;;;;;5052885;28;20446;-61
2023/10/28 00:41:09;;;;;;;7.40;1.80;;;;;;;;;;5053071;28;20775;-62
2023/10/28 00:43:37;;;;;;;3.73;1.40;;;;;;;;;;5052834;28;20410;-62
2023/10/28 00:46:03;;;;;;;1.63;1.17;;;;;;;;;;5052817;28;20451;-62
2023/10/28 00:48:31;;;;;;;3.23;1.60;;;;;;;;;;5051288;28;20494;-62
2023/10/28 00:50:57;;;;;;;7.50;1.87;;;;;;;;;;5052802;28;20398;-62
2023/10/28 00:53:27;;;;;;;2.20;1.17;;;;;;;;;;5051264;28;20506;-62
2023/10/28 00:55:54;;;;;;;5.67;1.27;;;;;;;;;;5052627;28;20431;-61
2023/10/28 00:58:21;;;;;;;5.50;1.60;;;;;;;;;;5052630;28;20788;-62
2023/10/28 01:00:46;;;;;;;2.60;1.40;;;;;;;;;;5052739;28;20778;-61
2023/10/28 01:03:16;;;;;;;7.37;1.80;;;;;;;;;;5051210;28;20426;-61
2023/10/28 01:05:42;;;;;;;8.07;2.20;;;;;;;;;;5052474;28;20536;-61
2023/10/28 01:08:09;;;;;;;8.70;1.30;;;;;;;;;;5051252;28;20911;-61
2023/10/28 01:10:35;;;;;;;4.60;1.53;;;;;;;;;;5051253;28;20776;-62
2023/10/28 01:13:04;;;;;;;8.80;1.73;;;;;;;;;;5052356;28;20403;-62
2023/10/28 01:15:30;;;;;;;1.13;1.13;;;;;;;;;;5052431;28;20442;-62
2023/10/28 01:17:59;;;;;;;5.17;1.50;;;;;;;;;;5052463;28;20407;-62
2023/10/28 01:20:28;;;;;;;2.70;1.20;;;;;;;;;;5052190;28;20450;-62
2023/10/28 01:22:58;;;;;;;2.93;1.23;;;;;;;;;;5052731;28;20498;-62
2023/10/28 01:25:25;;;;;;;12.73;2.20;;;;;;;;;;5052159;28;20960;-61
2023/10/28 01:27:51;;;;;;;6.27;1.60;;;;;;;;;;5052359;28;20441;-61
2023/10/28 01:30:17;;;;;;;1.57;1.47;;;;;;;;;;5052224;28;20950;-61
2023/10/28 01:32:44;;;;;;;2.53;1.73;;;;;;;;;;5052357;28;20406;-62
2023/10/28 01:35:10;;;;;;;2.67;1.83;;;;;;;;;;5052257;28;20954;-61
2023/10/28 01:37:39;;;;;;;1.27;1.20;;;;;;;;;;5055146;28;21027;-61
2023/10/28 01:40:12;;;;;;;3.07;1.20;;;;;;;;;;5055258;28;20451;-62
2023/10/28 01:42:39;;;;;;;1.93;1.13;;;;;;;;;;5055073;28;20905;-62
2023/10/28 01:45:05;;;;;;;1.57;1.10;;;;;;;;;;5056050;28;20988;-61
2023/10/28 01:47:31;;;;;;;4.07;1.50;;;;;;;;;;5056355;28;20949;-62
2023/10/28 01:49:58;;;;;;;1.80;1.10;;;;;;;;;;5056034;28;20438;-61
2023/10/28 01:52:25;;;;;;;0.80;0.80;;;;;;;;;;5055766;28;20461;-61
2023/10/28 01:54:51;;;;;;;0.70;0.70;;;;;;;;;;5056264;28;20799;-62
2023/10/28 01:57:18;;;;;;;0.83;0.83;;;;;;;;;;5055719;28;20411;-62
2023/10/28 01:59:44;;;;;;;1.00;1.00;;;;;;;;;;5055936;28;20499;-62
2023/10/28 02:02:10;;;;;;;1.33;1.00;;;;;;;;;;5055923;28;20979;-62
2023/10/28 02:04:36;;;;;;;1.77;1.03;;;;;;;;;;5055658;28;20466;-62
2023/10/28 02:07:04;;;;;;;0.87;0.70;;;;;;;;;;5054573;28;20402;-62
2023/10/28 02:09:33;;;;;;;2.53;0.80;;;;;;;;;;5055585;28;20857;-62
2023/10/28 02:12:02;;;;;;;1.77;0.80;;;;;;;;;;5055703;28;20422;-62
2023/10/28 02:14:28;;;;;;;3.47;1.00;;;;;;;;;;5055900;28;20442;-62
2023/10/28 02:16:56;;;;;;;4.30;1.30;;;;;;;;;;5054311;28;20421;-62
2023/10/28 02:19:22;;;;;;;1.40;1.10;;;;;;;;;;5055425;28;20907;-62
2023/10/28 02:21:50;;;;;;;3.23;1.60;;;;;;;;;;5055585;28;20439;-62
2023/10/28 02:24:19;;;;;;;4.27;2.57;;;;;;;;;;5055263;28;20465;-61
2023/10/28 02:26:46;;;;;;;2.27;1.00;;;;;;;;;;5055420;28;20474;-62
2023/10/28 02:29:12;;;;;;;1.90;1.33;;;;;;;;;;5055306;28;20835;-62
2023/10/28 02:31:40;;;;;;;1.10;0.93;;;;;;;;;;5055257;28;20439;-62
2023/10/28 02:34:07;;;;;;;1.33;1.13;;;;;;;;;;5055197;28;20486;-62
2023/10/28 02:36:33;;;;;;;1.20;0.87;;;;;;;;;;5055089;28;20894;-61
2023/10/28 02:39:00;;;;;;;1.13;1.00;;;;;;;;;;5055560;28;20422;-62
2023/10/28 02:41:26;;;;;;;4.03;1.30;;;;;;;;;;5055012;28;20421;-62
2023/10/28 02:43:54;;;;;;;0.90;0.90;;;;;;;;;;5055149;28;20415;-62
2023/10/28 02:46:21;;;;;;;2.30;0.97;;;;;;;;;;5055056;28;20427;-62
2023/10/28 02:48:47;;;;;;;3.47;1.03;;;;;;;;;;5054617;28;20406;-62
2023/10/28 02:51:15;;;;;;;3.27;0.93;;;;;;;;;;5053641;28;20972;-62
2023/10/28 02:53:43;;;;;;;2.57;0.90;;;;;;;;;;5054890;28;20442;-62
2023/10/28 02:56:09;;;;;;;1.33;0.80;;;;;;;;;;5054962;28;20423;-63
2023/10/28 02:58:36;;;;;;;2.03;0.93;;;;;;;;;;5055138;28;20921;-62
2023/10/28 03:01:11;;;;;;;2.40;1.27;;;;;;;;;;5054876;28;20427;-62
2023/10/28 03:03:41;;;;;;;2.13;1.13;;;;;;;;;;5053526;28;20420;-62
2023/10/28 03:06:07;;;;;;;1.13;0.70;;;;;;;;;;5053236;28;20511;-62
2023/10/28 03:08:33;;;;;;;2.00;0.90;;;;;;;;;;5055019;28;20768;-62
2023/10/28 03:11:02;;;;;;;2.20;1.00;;;;;;;;;;5054685;28;20498;-62
2023/10/28 03:13:28;;;;;;;2.50;0.97;;;;;;;;;;5054677;28;20427;-62
2023/10/28 03:15:54;;;;;;;6.93;0.93;;;;;;;;;;5054607;28;20439;-62
2023/10/28 03:18:20;;;;;;;4.57;1.07;;;;;;;;;;5054440;28;20485;-62
2023/10/28 03:20:46;;;;;;;0.93;0.73;;;;;;;;;;5054243;28;20438;-62
2023/10/28 03:23:12;;;;;;;2.23;1.50;;;;;;;;;;5054443;28;20465;-62
2023/10/28 03:25:38;;;;;;;2.00;0.83;;;;;;;;;;5054058;28;20516;-62
2023/10/28 03:28:04;;;;;;;1.57;0.97;;;;;;;;;;5054214;28;20404;-62
2023/10/28 03:30:31;;;;;;;1.57;0.90;;;;;;;;;;5054219;28;20854;-62
2023/10/28 03:32:57;;;;;;;3.20;0.97;;;;;;;;;;5052921;28;20419;-62
2023/10/28 03:35:23;;;;;;;1.40;1.00;;;;;;;;;;5054143;28;20735;-62
2023/10/28 03:37:49;;;;;;;1.87;1.07;;;;;;;;;;5052776;28;20847;-62
2023/10/28 03:40:15;;;;;;;2.70;1.00;;;;;;;;;;5054281;28;20442;-62
2023/10/28 03:42:41;;;;;;;1.03;0.93;;;;;;;;;;5054039;28;20467;-62
2023/10/28 03:45:07;;;;;;;0.93;0.93;;;;;;;;;;5053861;28;20481;-62
2023/10/28 03:47:34;;;;;;;1.10;1.00;;;;;;;;;;5053823;28;20411;-62
2023/10/28 03:50:00;;;;;;;1.90;1.10;;;;;;;;;;5053734;28;20423;-62
2023/10/28 03:52:26;;;;;;;1.13;0.87;;;;;;;;;;5054162;28;20450;-62
2023/10/28 03:54:52;;;;;;;1.60;0.90;;;;;;;;;;5053473;28;20415;-62
2023/10/28 03:57:21;;;;;;;3.27;1.10;;;;;;;;;;5053690;28;20476;-62
2023/10/28 03:59:49;;;;;;;5.63;0.80;;;;;;;;;;5053480;28;20387;-62
2023/10/28 04:02:16;;;;;;;2.00;1.10;;;;;;;;;;5053797;28;20473;-62
2023/10/28 04:04:41;;;;;;;0.90;0.70;;;;;;;;;;5052135;28;20550;-62
2023/10/28 04:07:07;;;;;;;0.77;0.77;;;;;;;;;;5053459;28;20497;-62
2023/10/28 04:09:35;;;;;;;1.17;1.07;;;;;;;;;;5053571;28;20736;-62
2023/10/28 04:12:01;;;;;;;3.90;1.10;;;;;;;;;;5052335;28;20413;-62
2023/10/28 04:14:27;;;;;;;2.83;1.30;;;;;;;;;;5053332;28;20501;-62
2023/10/28 04:16:53;;;;;;;2.43;1.00;;;;;;;;;;5053201;28;20415;-62
2023/10/28 04:19:19;;;;;;;3.13;1.37;;;;;;;;;;5051886;28;20470;-62
2023/10/28 04:21:45;;;;;;;4.43;1.50;;;;;;;;;;5053197;28;20925;-62
2023/10/28 04:24:11;;;;;;;2.93;0.77;;;;;;;;;;5053188;28;20486;-62
2023/10/28 04:26:37;;;;;;;2.67;1.07;;;;;;;;;;5053236;28;20998;-62
2023/10/28 04:29:04;;;;;;;2.50;0.70;;;;;;;;;;5053123;28;20411;-62
2023/10/28 04:31:32;;;;;;;1.43;0.90;;;;;;;;;;5053029;28;20871;-62
2023/10/28 04:34:00;;;;;;;1.67;1.00;;;;;;;;;;5052945;28;20439;-62
2023/10/28 04:36:26;;;;;;;1.03;0.73;;;;;;;;;;5053033;28;20435;-62
2023/10/28 04:38:52;;;;;;;1.97;0.97;;;;;;;;;;5052951;28;20909;-62
2023/10/28 04:41:18;;;;;;;1.20;1.10;;;;;;;;;;5052916;28;20453;-62
2023/10/28 04:43:44;;;;;;;0.90;0.90;;;;;;;;;;5052994;28;20407;-62
2023/10/28 04:46:10;;;;;;;1.00;0.93;;;;;;;;;;5052759;28;20471;-62
2023/10/28 04:48:38;;;;;;;2.50;1.07;;;;;;;;;;5052900;28;20413;-62
2023/10/28 04:51:05;;;;;;;2.60;1.17;;;;;;;;;;5052692;28;20976;-62
2023/10/28 04:53:31;;;;;;;1.23;1.13;;;;;;;;;;5052732;28;20480;-63
2023/10/28 04:55:57;;;;;;;2.30;1.07;;;;;;;;;;5052772;28;20457;-62
2023/10/28 04:58:24;;;;;;;2.60;1.20;;;;;;;;;;5052709;28;20915;-62
2023/10/28 05:00:50;;;;;;;1.60;1.00;;;;;;;;;;5052617;28;20492;-62
2023/10/28 05:03:18;;;;;;;2.20;0.83;;;;;;;;;;5052449;28;20410;-62
2023/10/28 05:05:46;;;;;;;4.43;1.10;;;;;;;;;;5052400;28;20481;-62
2023/10/28 05:08:13;;;;;;;2.90;1.00;;;;;;;;;;5052516;28;20393;-62
2023/10/28 05:10:39;;;;;;;2.50;1.00;;;;;;;;;;5052456;28;20437;-62
2023/10/28 05:13:10;;;;;;;1.70;1.10;;;;;;;;;;5052339;28;20414;-62
2023/10/28 05:15:38;;;;;;;1.43;1.20;;;;;;;;;;5052507;28;20402;-62
2023/10/28 05:18:07;;;;;;;1.93;0.90;;;;;;;;;;5052716;28;20755;-62
2023/10/28 05:20:33;;;;;;;1.10;1.03;;;;;;;;;;5050965;28;20439;-62
2023/10/28 05:23:02;;;;;;;1.50;1.33;;;;;;;;;;5051037;28;20419;-62
2023/10/28 05:25:28;;;;;;;1.13;1.03;;;;;;;;;;5052233;28;20500;-62
2023/10/28 05:27:54;;;;;;;2.00;0.93;;;;;;;;;;5052468;28;20422;-62
2023/10/28 05:30:23;;;;;;;1.27;1.17;;;;;;;;;;5052224;28;20894;-62
2023/10/28 05:32:50;;;;;;;3.90;1.27;;;;;;;;;;5052375;28;20414;-62
2023/10/28 05:35:18;;;;;;;1.80;1.10;;;;;;;;;;5051004;28;20442;-62
2023/10/28 05:37:45;;;;;;;11.27;1.13;;;;;;;;;;5052260;28;20418;-62
2023/10/28 05:40:13;;;;;;;1.40;1.20;;;;;;;;;;5052130;28;20791;-62
2023/10/28 05:42:41;;;;;;;1.77;1.00;;;;;;;;;;5052314;28;20415;-62
2023/10/28 05:45:10;;;;;;;2.40;1.00;;;;;;;;;;5052144;28;20462;-62
2023/10/28 05:47:37;;;;;;;2.20;0.90;;;;;;;;;;5052084;28;20916;-62
2023/10/28 05:50:06;;;;;;;2.23;0.97;;;;;;;;;;5050552;28;20423;-62
2023/10/28 05:52:34;;;;;;;1.87;0.70;;;;;;;;;;5052119;28;20414;-62
2023/10/28 05:55:00;;;;;;;6.43;5.73;;;;;;;;;;5052088;28;20438;-62
2023/10/28 05:57:26;;;;;;;0.83;0.80;;;;;;;;;;5051419;28;20448;-62
2023/10/28 05:59:52;;;;;;;1.07;0.97;;;;;;;;;;5052075;28;20431;-62
2023/10/28 06:02:18;;;;;;;1.23;0.90;;;;;;;;;;5051817;28;20922;-62
2023/10/28 06:04:47;;;;;;;0.83;0.83;;;;;;;;;;5051854;28;20468;-62
2023/10/28 06:07:16;;;;;;;1.23;0.93;;;;;;;;;;5051857;28;20934;-62
2023/10/28 06:09:42;;;;;;;1.43;1.20;;;;;;;;;;5052119;28;20406;-62
2023/10/28 06:12:08;;;;;;;1.60;0.93;;;;;;;;;;5051805;28;20463;-62
2023/10/28 06:14:34;;;;;;;5.70;1.00;;;;;;;;;;5052054;28;20434;-62
2023/10/28 06:17:00;;;;;;;2.70;1.30;;;;;;;;;;5051911;28;20881;-62
2023/10/28 06:19:26;;;;;;;2.53;1.33;;;;;;;;;;5051913;28;20430;-62
2023/10/28 06:21:52;;;;;;;3.07;0.80;;;;;;;;;;5052413;28;20795;-62
2023/10/28 06:24:21;;;;;;;4.80;1.50;;;;;;;;;;5055404;28;20417;-61
2023/10/28 06:26:47;;;;;;;1.90;1.20;;;;;;;;;;5055634;28;20445;-62
2023/10/28 06:29:13;;;;;;;6.93;1.50;;;;;;;;;;5055458;28;20407;-62
2023/10/28 06:31:40;;;;;;;1.10;1.00;;;;;;;;;;5055395;28;20446;-62
2023/10/28 06:34:08;;;;;;;2.87;2.60;;;;;;;;;;5055392;28;20403;-62
2023/10/28 06:36:37;;;;;;;41.17;29.10;;;;;;;;;;5055319;28;20914;-62
2023/10/28 06:39:03;;;;;;;4.00;3.57;;;;;;;;;;5053958;28;20435;-62
2023/10/28 06:41:31;;;;;;;3.30;2.03;;;;;;;;;;5055117;28;20514;-62
2023/10/28 06:44:02;;;;;;;8.60;2.50;;;;;;;;;;5055286;28;20415;-62
2023/10/28 06:46:28;;;;;;;1.67;1.57;;;;;;;;;;5055074;28;20521;-61
2023/10/28 06:48:54;;;;;;;4.33;1.70;;;;;;;;;;5055018;28;20407;-62
2023/10/28 06:51:21;;;;;;;2.30;1.63;;;;;;;;;;5054843;28;20791;-62
2023/10/28 06:53:49;;;;;;;4.77;2.33;;;;;;;;;;5055128;28;20446;-62
2023/10/28 06:56:15;;;;;;;1.43;1.33;;;;;;;;;;5054981;28;20418;-62
2023/10/28 06:58:42;;;;;;;4.83;1.90;;;;;;;;;;5054974;28;20395;-62
2023/10/28 07:01:10;;;;;;;3.07;1.50;;;;;;;;;;5054776;28;20498;-62
2023/10/28 07:03:40;;;;;;;2.83;1.30;;;;;;;;;;5054767;28;20426;-62
2023/10/28 07:06:14;;;;;;;4.77;1.40;;;;;;;;;;5054678;28;20554;-62
2023/10/28 07:08:40;;;;;;;4.87;1.30;;;;;;;;;;5054905;28;20408;-62
2023/10/28 07:11:06;;;;;;;2.50;1.20;;;;;;;;;;5054681;28;20549;-62
2023/10/28 07:13:32;;;;;;;7.50;1.27;;;;;;;;;;5054598;28;20506;-62
2023/10/28 07:16:04;;;;;;;1.20;1.13;;;;;;;;;;5054492;28;20896;-62
2023/10/28 07:18:31;;;;;;;1.43;1.07;;;;;;;;;;5054285;28;20422;-62
2023/10/28 07:20:57;;;;;;;5.80;1.37;;;;;;;;;;5054377;28;20446;-62
2023/10/28 07:23:26;;;;;;;1.87;1.50;;;;;;;;;;5054397;28;20419;-62
2023/10/28 07:25:53;;;;;;;2.00;1.30;;;;;;;;;;5054535;28;20467;-62
2023/10/28 07:28:19;;;;;;;6.00;3.17;;;;;;;;;;5054529;28;20947;-62
2023/10/28 07:30:45;;;;;;;7.10;1.50;;;;;;;;;;5052972;28;20502;-62
2023/10/28 07:33:13;;;;;;;4.17;1.30;;;;;;;;;;5053794;28;20407;-62
2023/10/28 07:35:43;;;;;;;1.93;1.10;;;;;;;;;;5053286;28;20422;-62
2023/10/28 07:38:12;;;;;;;2.20;1.30;;;;;;;;;;5054171;28;20447;-62
2023/10/28 07:40:38;;;;;;;4.90;1.63;;;;;;;;;;5053806;28;20829;-62
2023/10/28 07:43:05;;;;;;;3.43;1.00;;;;;;;;;;5053894;28;20826;-62
2023/10/28 07:45:31;;;;;;;2.20;1.60;;;;;;;;;;5053759;28;20513;-62
2023/10/28 07:47:57;;;;;;;4.40;3.23;;;;;;;;;;5053744;28;20490;-59
2023/10/28 07:50:23;;;;;;;4.00;3.60;;;;;;;;;;5053466;28;20424;-59
2023/10/28 07:52:49;;;;;;;3.37;1.50;;;;;;;;;;5053801;28;20434;-59
2023/10/28 07:55:15;;;;;;;2.40;1.50;;;;;;;;;;5053530;28;20501;-60
2023/10/28 07:57:43;;;;;;;2.90;2.40;;;;;;;;;;5053638;28;20464;-60
2023/10/28 08:00:11;;;;;;;3.63;2.87;;;;;;;;;;5053251;28;20851;-60
2023/10/28 08:02:37;;;;;;;2.23;1.80;;;;;;;;;;5053409;28;20453;-59
2023/10/28 08:05:04;;;;;;;3.13;1.73;;;;;;;;;;5053298;28;20902;-60
2023/10/28 08:07:30;;;;;;;2.03;1.43;;;;;;;;;;5053294;28;20468;-60
2023/10/28 08:09:57;;;;;;;2.47;1.70;;;;;;;;;;5053253;28;20406;-59
2023/10/28 08:12:26;;;;;;;5.87;5.27;;;;;;;;;;5053122;28;20947;-59
2023/10/28 08:14:55;;;;;;;2.00;1.37;;;;;;;;;;5053306;28;20958;-59
2023/10/28 08:17:21;;;;;;;2.93;1.33;;;;;;;;;;5053372;28;20448;-58
2023/10/28 08:19:47;;;;;;;2.23;1.03;;;;;;;;;;5053303;28;20532;-59
2023/10/28 08:22:16;;;;;;;3.17;1.80;;;;;;;;;;5052454;28;20551;-58
2023/10/28 08:24:42;;;;;;;4.47;1.37;;;;;;;;;;5053774;28;20456;-58
2023/10/28 08:27:11;;;;;;;5.73;1.90;;;;;;;;;;5053260;28;20448;-58
2023/10/28 08:29:37;;;;;;;6.53;1.53;;;;;;;;;;5053203;28;20422;-59
2023/10/28 08:32:03;;;;;;;3.80;1.40;;;;;;;;;;5053015;28;20419;-60
2023/10/28 08:34:33;;;;;;;1.90;1.40;;;;;;;;;;5053123;28;20394;-59
2023/10/28 08:36:59;;;;;;;15.63;11.73;;;;;;;;;;5052928;28;20422;-60
2023/10/28 08:39:26;;;;;;;4.63;4.40;;;;;;;;;;5053247;28;20428;-59
2023/10/28 08:41:52;;;;;;;9.40;5.53;;;;;;;;;;5052863;28;20467;-60
2023/10/28 08:44:27;;;;;;;2.17;1.97;;;;;;;;;;5052580;28;20456;-59
2023/10/28 08:46:53;;;;;;;2.13;1.33;;;;;;;;;;5052496;28;20426;-60
2023/10/28 08:49:21;;;;;;;3.07;1.60;;;;;;;;;;5052990;28;20409;-60
2023/10/28 08:51:50;;;;;;;4.03;1.70;;;;;;;;;;5052723;28;20407;-60
2023/10/28 08:54:19;;;;;;;3.07;1.53;;;;;;;;;;5052669;28;20407;-60
2023/10/28 08:56:47;;;;;;;2.27;1.73;;;;;;;;;;5052220;28;20415;-60
2023/10/28 08:59:13;;;;;;;4.87;1.97;;;;;;;;;;5052616;28;20418;-60
2023/10/28 09:01:40;;;;;;;2.67;1.67;;;;;;;;;;5051160;28;20442;-60
2023/10/28 09:04:06;;;;;;;2.50;1.80;;;;;;;;;;5051366;28;20430;-60
2023/10/28 09:06:32;;;;;;;2.33;1.67;;;;;;;;;;5052526;28;20434;-60
2023/10/28 09:08:59;;;;;;;2.40;1.90;;;;;;;;;;5052382;28;20857;-59
2023/10/28 09:11:25;;;;;;;2.80;2.27;;;;;;;;;;5052453;28;20439;-60
2023/10/28 09:13:52;;;;;;;1.47;1.37;;;;;;;;;;5051299;28;20820;-60
2023/10/28 09:16:18;;;;;;;4.70;1.40;;;;;;;;;;5052296;28;20907;-60
2023/10/28 09:18:44;;;;;;;4.07;1.67;;;;;;;;;;5052350;28;20930;-60
2023/10/28 09:21:11;;;;;;;3.33;1.30;;;;;;;;;;5052303;28;20464;-60
2023/10/28 09:23:41;;;;;;;1.83;1.20;;;;;;;;;;5052350;28;20473;-60
2023/10/28 09:26:08;;;;;;;5.60;2.73;;;;;;;;;;5052304;28;20475;-60
2023/10/28 09:28:43;;;;;;;1.77;1.50;;;;;;;;;;5052377;28;20435;-60
2023/10/28 09:31:09;;;;;;;1.93;1.37;;;;;;;;;;5052385;28;20893;-60
2023/10/28 09:33:36;;;;;;;2.00;1.90;;;;;;;;;;5052316;28;20438;-60
2023/10/28 09:36:02;;;;;;;2.00;1.27;;;;;;;;;;5052415;28;20799;-59
2023/10/28 09:38:28;;;;;;;4.00;1.40;;;;;;;;;;5051860;28;20423;-59
2023/10/28 09:40:58;;;;;;;2.13;1.17;;;;;;;;;;5052026;28;20422;-60
2023/10/28 09:43:28;;;;;;;2.07;1.33;;;;;;;;;;5052171;28;21001;-61
2023/10/28 09:45:54;;;;;;;4.87;1.43;;;;;;;;;;5052177;28;20539;-61
2023/10/28 09:48:20;;;;;;;4.00;1.80;;;;;;;;;;5052394;28;20790;-57
2023/10/28 09:50:52;;;;;;;1.33;1.23;;;;;;;;;;5050713;28;20440;-57
2023/10/28 09:53:30;;;;;;;4.23;1.33;;;;;;;;;;5050859;28;20531;-58
2023/10/28 09:55:56;;;;;;;1.70;1.50;;;;;;;;;;5051704;28;20487;-58
2023/10/28 09:58:28;;;;;;;3.20;2.03;;;;;;;;;;5054144;28;20830;-57
2023/10/28 10:01:09;;;;;;;4.23;1.70;;;;;;;;;;5054423;28;20500;-58
2023/10/28 10:03:46;;;;;;;3.73;1.70;;;;;;;;;;5055632;28;20454;-58
2023/10/28 10:06:12;;;;;;;4.83;1.93;;;;;;;;;;5055468;28;20494;-58
2023/10/28 10:08:47;;;;;;;7.90;1.80;;;;;;;;;;5055639;28;20493;-58
2023/10/28 10:11:15;;;;;;;2.70;1.60;;;;;;;;;;5055408;28;20474;-58
2023/10/28 10:13:44;;;;;;;4.20;2.03;;;;;;;;;;5055421;28;20471;-59
2023/10/28 10:16:16;;;;;;;5.60;1.80;;;;;;;;;;5054869;28;20417;-59
2023/10/28 10:18:49;;;;;;;1.93;1.70;;;;;;;;;;5055407;28;20483;-58
2023/10/28 10:21:18;;;;;;;1.67;1.30;;;;;;;;;;5055201;28;20442;-60
2023/10/28 10:23:46;;;;;;;3.80;2.20;;;;;;;;;;5055196;28;20794;-58
2023/10/28 10:26:28;;;;;;;4.70;2.20;;;;;;;;;;5055382;28;20486;-60
2023/10/28 10:29:00;;;;;;;4.03;1.40;;;;;;;;;;5055170;28;20473;-60
2023/10/28 10:31:36;;;;;;;6.57;2.30;;;;;;;;;;5054354;28;20409;-60
2023/10/28 10:34:03;;;;;;;4.43;1.43;;;;;;;;;;5055216;28;20781;-60
2023/10/28 10:36:30;;;;;;;4.03;1.50;;;;;;;;;;5054955;28;20419;-60
2023/10/28 10:39:09;;;;;;;2.27;1.30;;;;;;;;;;5053887;28;20813;-60
2023/10/28 10:41:35;;;;;;;1.90;1.70;;;;;;;;;;5054859;28;20417;-60
2023/10/28 10:44:24;;;;;;;1.73;1.43;;;;;;;;;;5053592;28;20859;-58
2023/10/28 10:46:50;;;;;;;2.10;1.13;;;;;;;;;;5055004;28;20459;-58
2023/10/28 10:49:16;;;;;;;9.67;1.90;;;;;;;;;;5054802;28;20779;-58
2023/10/28 10:51:43;;;;;;;4.83;1.57;;;;;;;;;;5054792;28;20424;-59
2023/10/28 10:54:09;;;;;;;4.30;1.60;;;;;;;;;;5054641;28;20441;-59
2023/10/28 10:56:36;;;;;;;3.50;1.33;;;;;;;;;;5054738;28;20448;-58
2023/10/28 10:59:02;;;;;;;5.37;2.30;;;;;;;;;;5054348;28;20514;-59
2023/10/28 11:01:31;;;;;;;5.60;2.17;;;;;;;;;;5054674;28;20430;-59
2023/10/28 11:03:57;;;;;;;6.33;1.80;;;;;;;;;;5054687;28;20476;-59
2023/10/28 11:06:23;;;;;;;2.57;1.47;;;;;;;;;;5054031;28;20831;-59
2023/10/28 11:08:50;;;;;;;3.57;1.60;;;;;;;;;;5053027;28;20487;-59
2023/10/28 11:11:16;;;;;;;6.70;2.73;;;;;;;;;;5054194;28;20416;-59
2023/10/28 11:13:44;;;;;;;6.77;1.77;;;;;;;;;;5054741;28;20898;-59
2023/10/28 11:16:23;;;;;;;2.37;1.60;;;;;;;;;;5053999;28;20557;-59
2023/10/28 11:18:50;;;;;;;3.10;1.63;;;;;;;;;;5054719;28;20455;-59
2023/10/28 11:21:16;;;;;;;5.13;1.57;;;;;;;;;;5054699;28;20828;-59
2023/10/28 11:23:43;;;;;;;5.50;1.70;;;;;;;;;;5054128;28;20452;-59
2023/10/28 11:26:09;;;;;;;3.33;1.37;;;;;;;;;;5054146;28;20541;-59
2023/10/28 11:28:38;;;;;;;6.93;1.23;;;;;;;;;;5054230;28;20432;-59
2023/10/28 11:31:05;;;;;;;4.00;1.43;;;;;;;;;;5054046;28;20920;-59
2023/10/28 11:33:31;;;;;;;3.33;1.63;;;;;;;;;;5054153;28;20417;-59
2023/10/28 11:35:58;;;;;;;4.63;2.00;;;;;;;;;;5053754;28;20931;-59
2023/10/28 11:38:27;;;;;;;3.43;1.63;;;;;;;;;;5053807;28;20416;-59
2023/10/28 11:41:06;;;;;;;4.33;1.43;;;;;;;;;;5054152;28;20396;-59
2023/10/28 11:43:32;;;;;;;1.27;1.10;;;;;;;;;;5052731;28;20426;-59
2023/10/28 11:45:58;;;;;;;2.97;1.87;;;;;;;;;;5053660;28;20554;-59
2023/10/28 11:48:24;;;;;;;5.77;2.00;;;;;;;;;;5053732;28;20932;-60
2023/10/28 11:50:51;;;;;;;4.80;1.90;;;;;;;;;;5053815;28;20466;-59
2023/10/28 11:53:17;;;;;;;5.67;1.63;;;;;;;;;;5053445;28;20418;-59
2023/10/28 11:55:45;;;;;;;4.53;1.40;;;;;;;;;;5053586;28;20945;-59
2023/10/28 11:58:11;;;;;;;3.43;2.30;;;;;;;;;;5053125;28;20428;-59
2023/10/28 12:00:37;;;;;;;5.47;1.83;;;;;;;;;;5053522;28;20886;-59
2023/10/28 12:03:05;;;;;;;1.23;1.13;;;;;;;;;;5052416;28;20425;-59
2023/10/28 12:05:33;;;;;;;4.53;1.73;;;;;;;;;;5053387;28;20609;-60
2023/10/28 12:08:01;;;;;;;2.30;1.30;;;;;;;;;;5053598;28;20787;-59
2023/10/28 12:10:27;;;;;;;3.70;1.83;;;;;;;;;;5052996;28;20784;-59
2023/10/28 12:12:53;;;;;;;1.97;1.30;;;;;;;;;;5051772;28;20411;-59
2023/10/28 12:15:20;;;;;;;1.50;1.40;;;;;;;;;;5053121;28;20448;-60
2023/10/28 12:17:47;;;;;;;4.10;1.60;;;;;;;;;;5053278;28;20773;-59
2023/10/28 12:20:17;;;;;;;3.80;1.77;;;;;;;;;;5052632;28;20459;-59
2023/10/28 12:22:43;;;;;;;2.50;1.30;;;;;;;;;;5053027;28;20432;-60
2023/10/28 12:25:11;;;;;;;1.87;1.43;;;;;;;;;;5051932;28;20493;-59
2023/10/28 12:27:39;;;;;;;5.40;1.57;;;;;;;;;;5051940;28;20447;-59
2023/10/28 12:30:06;;;;;;;2.77;1.50;;;;;;;;;;5051842;28;20449;-60
2023/10/28 12:32:35;;;;;;;1.97;1.20;;;;;;;;;;5053359;28;20842;-59
2023/10/28 12:35:01;;;;;;;2.70;1.43;;;;;;;;;;5052759;28;20423;-59
2023/10/28 12:37:27;;;;;;;3.83;1.50;;;;;;;;;;5052933;28;20415;-59
2023/10/28 12:39:55;;;;;;;3.00;1.50;;;;;;;;;;5052967;28;20440;-59
2023/10/28 12:42:21;;;;;;;11.33;5.40;;;;;;;;;;5053139;28;20412;-59
2023/10/28 12:44:47;;;;;;;4.43;1.50;;;;;;;;;;5052450;28;20466;-59
2023/10/28 12:47:16;;;;;;;7.13;1.73;;;;;;;;;;5051581;28;20475;-59
2023/10/28 12:49:42;;;;;;;4.10;1.20;;;;;;;;;;5051386;28;20427;-59
2023/10/28 12:52:08;;;;;;;2.93;1.80;;;;;;;;;;5052555;28;20415;-59
2023/10/28 12:54:35;;;;;;;8.27;2.57;;;;;;;;;;5052608;28;20481;-59
2023/10/28 12:57:05;;;;;;;2.93;1.37;;;;;;;;;;5052244;28;20417;-60
2023/10/28 12:59:33;;;;;;;3.30;1.57;;;;;;;;;;5051188;28;20566;-59
2023/10/28 13:01:59;;;;;;;3.47;1.70;;;;;;;;;;5052640;28;20892;-59
2023/10/28 13:04:25;;;;;;;8.23;2.20;;;;;;;;;;5052076;28;20481;-59
2023/10/28 13:06:51;;;;;;;4.30;2.73;;;;;;;;;;5052820;28;20416;-59
2023/10/28 13:09:17;;;;;;;2.50;2.27;;;;;;;;;;5052256;28;20404;-59
2023/10/28 13:11:43;;;;;;;5.27;4.10;;;;;;;;;;5052346;28;20506;-59
2023/10/28 13:14:11;;;;;;;4.50;3.97;;;;;;;;;;5052127;28;20450;-59
2023/10/28 13:16:37;;;;;;;7.30;5.03;;;;;;;;;;5052118;28;20465;-59
2023/10/28 13:19:04;;;;;;;4.70;2.47;;;;;;;;;;5052275;28;20809;-59
2023/10/28 13:21:30;;;;;;;6.03;2.20;;;;;;;;;;5052075;28;20468;-60
2023/10/28 13:23:57;;;;;;;5.30;3.10;;;;;;;;;;5052046;28;20609;-59
2023/10/28 13:26:23;;;;;;;6.40;2.80;;;;;;;;;;5052131;28;20485;-59
2023/10/28 13:28:52;;;;;;;14.63;2.57;;;;;;;;;;5052000;28;20457;-60
2023/10/28 13:31:17;;;;;;;3.37;1.30;;;;;;;;;;5052047;28;20415;-60
2023/10/28 13:33:43;;;;;;;4.67;1.87;;;;;;;;;;5055107;28;20780;-60
2023/10/28 13:36:11;;;;;;;2.03;1.80;;;;;;;;;;5056351;28;20525;-59
2023/10/28 13:38:37;;;;;;;6.73;2.30;;;;;;;;;;5056517;28;20431;-59
2023/10/28 13:41:08;;;;;;;2.23;1.67;;;;;;;;;;5055711;28;20787;-59
2023/10/28 13:43:34;;;;;;;4.63;1.70;;;;;;;;;;5055111;28;20467;-59
2023/10/28 13:46:00;;;;;;;4.00;1.77;;;;;;;;;;5055074;28;20966;-59
2023/10/28 13:48:26;;;;;;;14.93;9.83;;;;;;;;;;5056209;28;20416;-59
2023/10/28 13:50:55;;;;;;;10.57;3.50;;;;;;;;;;5055901;28;20527;-58
2023/10/28 13:53:21;;;;;;;18.97;6.30;;;;;;;;;;5056117;28;20432;-58
2023/10/28 13:55:48;;;;;;;11.77;2.90;;;;;;;;;;5055512;28;20970;-59
2023/10/28 13:58:14;;;;;;;3.87;2.90;;;;;;;;;;5055768;28;20419;-58
2023/10/28 14:00:40;;;;;;;10.40;2.70;;;;;;;;;;5055736;28;20472;-58
2023/10/28 14:03:06;;;;;;;6.03;3.13;;;;;;;;;;5055344;28;20423;-59
2023/10/28 14:05:32;;;;;;;30.60;6.40;;;;;;;;;;5053699;28;20573;-58
2023/10/28 14:08:02;;;;;;;72.40;23.20;;;;;;;;;;5055624;28;20403;-59
2023/10/28 14:10:28;;;;;;;71.60;37.50;;;;;;;;;;5055453;28;20428;-58
2023/10/28 14:12:54;;;;;;;36.53;21.47;;;;;;;;;;5054638;28;20844;-59
2023/10/28 14:15:21;;;;;;;62.33;35.60;;;;;;;;;;5055521;28;20420;-59
2023/10/28 14:17:51;;;;;;;36.63;21.03;;;;;;;;;;5055544;28;20411;-59
2023/10/28 14:20:18;;;;;;;23.60;14.50;;;;;;;;;;5055368;28;20466;-59
2023/10/28 14:22:44;;;;;;;27.80;16.37;;;;;;;;;;5055446;28;20420;-59
2023/10/28 14:25:13;;;;;;;25.70;10.67;;;;;;;;;;5055239;28;20473;-59
2023/10/28 14:27:44;;;;;;;33.77;7.33;;;;;;;;;;5055231;28;20835;-59
2023/10/28 14:30:13;;;;;;;10.87;6.83;;;;;;;;;;5053566;28;20447;-60
2023/10/28 14:32:39;;;;;;;3.60;3.27;;;;;;;;;;5055311;28;20416;-60
2023/10/28 14:35:07;;;;;;;4.53;2.30;;;;;;;;;;5054874;28;20917;-59
2023/10/28 14:37:36;;;;;;;15.53;8.90;;;;;;;;;;5055152;28;20879;-59
2023/10/28 14:40:05;;;;;;;18.17;12.57;;;;;;;;;;5055025;28;20451;-59
2023/10/28 14:42:33;;;;;;;9.07;5.57;;;;;;;;;;5054913;28;20407;-59